createdAt,value
2017-04-01T00:00:02.422Z,951.50
2017-04-01T00:00:50.330Z,951.49
2017-04-01T00:01:44.038Z,951.46
2017-04-01T00:02:49.638Z,951.45
2017-04-01T00:03:47.307Z,951.44
2017-04-01T00:04:42.598Z,951.45
2017-04-01T00:05:33.609Z,951.46
2017-04-01T00:06:42.915Z,951.44
2017-04-01T00:07:43.201Z,951.46
2017-04-01T00:08:44.918Z,951.45
2017-04-01T00:09:46.931Z,951.44
2017-04-01T00:10:54.221Z,951.42
2017-04-01T00:11:52.339Z,951.43
2017-04-01T00:12:43.868Z,951.45
2017-04-01T00:13:53.231Z,951.40
2017-04-01T00:14:44.038Z,951.42
2017-04-01T00:15:44.923Z,951.42
2017-04-01T00:16:39.669Z,951.43
2017-04-01T00:17:39.169Z,951.43
2017-04-01T00:18:52.302Z,951.43
2017-04-01T00:19:52.375Z,951.39
2017-04-01T00:20:44.051Z,951.40
2017-04-01T00:21:50.099Z,951.40
2017-04-01T00:22:51.138Z,951.37
2017-04-01T00:23:44.973Z,951.32
2017-04-01T00:24:38.556Z,951.33
2017-04-01T00:25:51.135Z,951.29
2017-04-01T00:26:44.926Z,951.30
2017-04-01T00:27:49.267Z,951.31
2017-04-01T00:28:39.113Z,951.28
2017-04-01T00:29:49.677Z,951.28
2017-04-01T00:30:53.463Z,951.28
2017-04-01T00:31:39.764Z,951.31
2017-04-01T00:32:45.433Z,951.24
2017-04-01T00:33:38.949Z,951.24
2017-04-01T00:34:42.462Z,951.26
2017-04-01T00:35:43.680Z,951.23
2017-04-01T00:36:52.191Z,951.23
2017-04-01T00:37:52.885Z,951.24
2017-04-01T00:38:50.704Z,951.17
2017-04-01T00:39:50.087Z,951.22
2017-04-01T00:40:49.679Z,951.18
2017-04-01T00:41:49.705Z,951.22
2017-04-01T00:42:39.485Z,951.22
2017-04-01T00:43:44.942Z,951.19
2017-04-01T00:44:49.043Z,951.20
2017-04-01T00:45:34.093Z,951.14
2017-04-01T00:46:43.541Z,951.18
2017-04-01T00:47:39.348Z,951.13
2017-04-01T00:48:44.403Z,951.14
2017-04-01T00:49:52.477Z,951.12
2017-04-01T00:50:48.518Z,951.09
2017-04-01T00:51:43.404Z,951.11
2017-04-01T00:52:49.446Z,951.09
2017-04-01T00:53:44.978Z,951.02
2017-04-01T00:54:46.105Z,951.03
2017-04-01T00:55:44.745Z,951.03
2017-04-01T00:56:42.325Z,951.00
2017-04-01T00:57:43.134Z,951.01
2017-04-01T00:58:44.751Z,951.03
2017-04-01T00:59:53.608Z,951.03
2017-04-01T01:00:52.025Z,950.98
2017-04-01T01:02:00.816Z,950.99
2017-04-01T01:02:49.127Z,950.96
2017-04-01T01:03:40.713Z,950.98
2017-04-01T01:04:56.387Z,950.96
2017-04-01T01:05:54.783Z,950.95
2017-04-01T01:06:53.697Z,950.95
2017-04-01T01:07:33.655Z,950.95
2017-04-01T01:08:44.401Z,950.97
2017-04-01T01:09:52.113Z,950.97
2017-04-01T01:10:53.128Z,950.97
2017-04-01T01:11:58.266Z,950.94
2017-04-01T01:12:47.397Z,950.90
2017-04-01T01:13:54.445Z,950.95
2017-04-01T01:14:52.438Z,950.94
2017-04-01T01:15:55.899Z,950.90
2017-04-01T01:17:04.398Z,950.89
2017-04-01T01:17:37.476Z,950.91
2017-04-01T01:18:54.616Z,950.89
2017-04-01T01:19:49.765Z,950.87
2017-04-01T01:20:50.139Z,950.90
2017-04-01T01:21:44.024Z,950.93
2017-04-01T01:22:48.050Z,950.91
2017-04-01T01:23:59.183Z,950.87
2017-04-01T01:24:44.066Z,950.87
2017-04-01T01:25:40.496Z,950.86
2017-04-01T01:26:45.428Z,950.87
2017-04-01T01:27:49.660Z,950.88
2017-04-01T01:28:57.271Z,950.90
2017-04-01T01:29:55.787Z,950.91
2017-04-01T01:30:45.225Z,950.90
2017-04-01T01:31:52.273Z,950.88
2017-04-01T01:32:58.047Z,950.91
2017-04-01T01:33:54.092Z,950.88
2017-04-01T01:34:50.765Z,950.91
2017-04-01T01:35:49.933Z,950.91
2017-04-01T01:36:49.836Z,950.89
2017-04-01T01:37:45.308Z,950.90
2017-04-01T01:38:39.919Z,950.88
2017-04-01T01:39:43.590Z,950.86
2017-04-01T01:40:53.408Z,950.87
2017-04-01T01:41:53.484Z,950.90
2017-04-01T01:42:52.857Z,950.87
2017-04-01T01:43:47.395Z,950.88
2017-04-01T01:44:54.105Z,950.86
2017-04-01T01:45:50.283Z,950.83
2017-04-01T01:46:47.405Z,950.86
2017-04-01T01:47:50.031Z,950.86
2017-04-01T01:48:49.265Z,950.83
2017-04-01T01:49:49.824Z,950.79
2017-04-01T01:50:51.063Z,950.83
2017-04-01T01:51:43.494Z,950.78
2017-04-01T01:52:49.965Z,950.75
2017-04-01T01:53:40.455Z,950.76
2017-04-01T01:54:53.763Z,950.77
2017-04-01T01:55:44.945Z,950.78
2017-04-01T01:56:39.287Z,950.78
2017-04-01T01:57:47.796Z,950.73
2017-04-01T01:58:45.473Z,950.78
2017-04-01T01:59:53.438Z,950.74
2017-04-01T02:00:49.785Z,950.77
2017-04-01T02:01:43.549Z,950.76
2017-04-01T02:02:46.055Z,950.75
2017-04-01T02:03:43.633Z,950.72
2017-04-01T02:04:49.473Z,950.78
2017-04-01T02:05:44.920Z,950.77
2017-04-01T02:06:44.004Z,950.74
2017-04-01T02:07:47.200Z,950.78
2017-04-01T02:08:50.170Z,950.74
2017-04-01T02:09:56.284Z,950.76
2017-04-01T02:10:50.395Z,950.74
2017-04-01T02:11:54.163Z,950.77
2017-04-01T02:12:46.279Z,950.74
2017-04-01T02:13:54.395Z,950.71
2017-04-01T02:15:38.953Z,950.66
2017-04-01T02:16:44.066Z,950.70
2017-04-01T02:17:39.473Z,950.65
2017-04-01T02:18:53.993Z,950.66
2017-04-01T02:19:50.041Z,950.62
2017-04-01T02:20:45.595Z,950.68
2017-04-01T02:21:49.474Z,950.65
2017-04-01T02:22:45.456Z,950.63
2017-04-01T02:23:44.083Z,950.63
2017-04-01T02:24:44.226Z,950.60
2017-04-01T02:25:51.561Z,950.64
2017-04-01T02:26:53.420Z,950.63
2017-04-01T02:27:44.873Z,950.62
2017-04-01T02:28:49.557Z,950.60
2017-04-01T02:29:56.771Z,950.57
2017-04-01T02:30:47.475Z,950.60
2017-04-01T02:31:47.311Z,950.62
2017-04-01T02:32:45.082Z,950.66
2017-04-01T02:33:45.422Z,950.59
2017-04-01T02:34:44.868Z,950.62
2017-04-01T02:35:39.391Z,950.61
2017-04-01T02:36:45.296Z,950.65
2017-04-01T02:37:45.686Z,950.60
2017-04-01T02:38:43.507Z,950.58
2017-04-01T02:39:43.365Z,950.57
2017-04-01T02:40:51.774Z,950.58
2017-04-01T02:41:40.888Z,950.56
2017-04-01T02:42:35.395Z,950.58
2017-04-01T02:43:44.846Z,950.61
2017-04-01T02:44:39.205Z,950.61
2017-04-01T02:45:43.366Z,950.60
2017-04-01T02:46:48.333Z,950.62
2017-04-01T02:47:47.962Z,950.60
2017-04-01T02:48:49.273Z,950.56
2017-04-01T02:49:49.281Z,950.55
2017-04-01T02:50:44.242Z,950.55
2017-04-01T02:51:42.860Z,950.51
2017-04-01T02:52:50.142Z,950.55
2017-04-01T02:53:54.848Z,950.61
2017-04-01T02:54:39.175Z,950.56
2017-04-01T02:55:56.061Z,950.54
2017-04-01T02:56:44.656Z,950.57
2017-04-01T02:57:45.140Z,950.51
2017-04-01T02:58:48.736Z,950.50
2017-04-01T02:59:40.018Z,950.45
2017-04-01T03:00:45.116Z,950.43
2017-04-01T03:01:48.638Z,950.46
2017-04-01T03:02:51.913Z,950.45
2017-04-01T03:03:46.064Z,950.48
2017-04-01T03:04:49.262Z,950.38
2017-04-01T03:05:52.523Z,950.41
2017-04-01T03:06:38.491Z,950.40
2017-04-01T03:07:49.272Z,950.42
2017-04-01T03:08:47.881Z,950.43
2017-04-01T03:09:43.919Z,950.42
2017-04-01T03:10:39.017Z,950.42
2017-04-01T03:11:39.021Z,950.41
2017-04-01T03:12:56.564Z,950.41
2017-04-01T03:13:41.307Z,950.38
2017-04-01T03:14:44.559Z,950.35
2017-04-01T03:15:45.013Z,950.36
2017-04-01T03:16:39.792Z,950.34
2017-04-01T03:17:50.105Z,950.33
2017-04-01T03:18:43.845Z,950.31
2017-04-01T03:19:45.295Z,950.31
2017-04-01T03:20:43.623Z,950.28
2017-04-01T03:21:45.007Z,950.29
2017-04-01T03:22:48.332Z,950.29
2017-04-01T03:23:40.598Z,950.27
2017-04-01T03:24:45.291Z,950.26
2017-04-01T03:25:50.132Z,950.26
2017-04-01T03:26:51.123Z,950.28
2017-04-01T03:27:45.213Z,950.25
2017-04-01T03:28:46.668Z,950.26
2017-04-01T03:29:44.169Z,950.29
2017-04-01T03:30:46.718Z,950.23
2017-04-01T03:32:01.951Z,950.24
2017-04-01T03:32:45.153Z,950.22
2017-04-01T03:33:45.212Z,950.22
2017-04-01T03:34:45.640Z,950.23
2017-04-01T03:35:49.904Z,950.23
2017-04-01T03:36:43.933Z,950.20
2017-04-01T03:37:49.690Z,950.21
2017-04-01T03:38:45.011Z,950.20
2017-04-01T03:39:45.597Z,950.17
2017-04-01T03:40:43.395Z,950.15
2017-04-01T03:41:53.081Z,950.16
2017-04-01T03:42:51.978Z,950.16
2017-04-01T03:43:40.389Z,950.14
2017-04-01T03:44:37.806Z,950.15
2017-04-01T03:45:45.176Z,950.14
2017-04-01T03:46:49.562Z,950.11
2017-04-01T03:47:50.659Z,950.16
2017-04-01T03:48:44.379Z,950.12
2017-04-01T03:49:38.448Z,950.12
2017-04-01T03:50:39.588Z,950.17
2017-04-01T03:51:43.527Z,950.11
2017-04-01T03:52:43.487Z,950.09
2017-04-01T03:53:43.535Z,950.15
2017-04-01T03:54:45.478Z,950.13
2017-04-01T03:55:45.205Z,950.17
2017-04-01T03:56:43.738Z,950.15
2017-04-01T03:57:50.182Z,950.11
2017-04-01T03:58:49.660Z,950.13
2017-04-01T03:59:39.922Z,950.12
2017-04-01T04:00:44.429Z,950.14
2017-04-01T04:01:54.368Z,950.09
2017-04-01T04:02:39.107Z,950.07
2017-04-01T04:03:48.322Z,950.10
2017-04-01T04:04:39.433Z,950.06
2017-04-01T04:05:43.426Z,950.04
2017-04-01T04:06:39.725Z,950.06
2017-04-01T04:07:38.282Z,950.07
2017-04-01T04:08:40.086Z,950.03
2017-04-01T04:09:55.256Z,950.05
2017-04-01T04:10:44.885Z,950.03
2017-04-01T04:11:45.171Z,950.01
2017-04-01T04:12:55.888Z,949.98
2017-04-01T04:13:45.279Z,949.98
2017-04-01T04:14:39.328Z,949.91
2017-04-01T04:15:49.446Z,949.92
2017-04-01T04:16:45.095Z,949.90
2017-04-01T04:17:49.515Z,949.96
2017-04-01T04:18:47.398Z,949.92
2017-04-01T04:19:54.382Z,949.89
2017-04-01T04:20:49.120Z,949.86
2017-04-01T04:21:43.974Z,949.88
2017-04-01T04:22:53.959Z,949.89
2017-04-01T04:23:49.793Z,949.91
2017-04-01T04:24:45.195Z,949.94
2017-04-01T04:25:46.830Z,949.94
2017-04-01T04:26:44.909Z,949.94
2017-04-01T04:27:47.380Z,949.97
2017-04-01T04:28:41.274Z,949.98
2017-04-01T04:29:39.352Z,949.97
2017-04-01T04:30:40.420Z,949.97
2017-04-01T04:31:45.574Z,949.99
2017-04-01T04:32:53.711Z,949.99
2017-04-01T04:33:50.075Z,950.04
2017-04-01T04:34:45.691Z,949.98
2017-04-01T04:35:38.604Z,949.98
2017-04-01T04:36:45.069Z,949.99
2017-04-01T04:37:44.240Z,949.93
2017-04-01T04:38:48.373Z,949.97
2017-04-01T04:39:45.012Z,949.93
2017-04-01T04:40:44.904Z,949.95
2017-04-01T04:41:40.935Z,949.93
2017-04-01T04:42:45.965Z,949.94
2017-04-01T04:43:44.516Z,949.93
2017-04-01T04:45:04.198Z,949.92
2017-04-01T04:45:53.452Z,949.89
2017-04-01T04:46:52.384Z,949.92
2017-04-01T04:47:46.264Z,949.90
2017-04-01T04:48:53.782Z,949.93
2017-04-01T04:49:54.293Z,949.92
2017-04-01T04:50:39.082Z,949.92
2017-04-01T04:51:50.891Z,949.93
2017-04-01T04:52:44.966Z,949.91
2017-04-01T04:53:45.749Z,949.88
2017-04-01T04:54:39.117Z,949.93
2017-04-01T04:55:44.118Z,949.92
2017-04-01T04:56:45.147Z,949.93
2017-04-01T04:57:46.348Z,949.93
2017-04-01T04:58:47.784Z,949.99
2017-04-01T04:59:44.960Z,949.93
2017-04-01T05:00:48.835Z,949.95
2017-04-01T05:01:51.027Z,950.03
2017-04-01T05:02:42.963Z,949.99
2017-04-01T05:03:44.387Z,950.04
2017-04-01T05:04:50.996Z,950.04
2017-04-01T05:05:44.936Z,949.96
2017-04-01T05:06:37.795Z,949.97
2017-04-01T05:07:39.477Z,950.01
2017-04-01T05:08:39.520Z,950.01
2017-04-01T05:09:45.038Z,949.96
2017-04-01T05:10:45.449Z,949.96
2017-04-01T05:11:53.304Z,949.97
2017-04-01T05:12:39.204Z,950.01
2017-04-01T05:13:50.133Z,949.99
2017-04-01T05:14:39.496Z,950.01
2017-04-01T05:15:49.289Z,949.99
2017-04-01T05:16:50.977Z,949.97
2017-04-01T05:17:43.509Z,949.95
2017-04-01T05:18:45.040Z,949.95
2017-04-01T05:19:49.281Z,949.92
2017-04-01T05:20:44.971Z,949.94
2017-04-01T05:21:43.420Z,949.94
2017-04-01T05:22:50.270Z,949.94
2017-04-01T05:23:50.106Z,949.93
2017-04-01T05:24:46.253Z,949.91
2017-04-01T05:25:44.039Z,949.90
2017-04-01T05:26:45.703Z,949.89
2017-04-01T05:27:45.051Z,949.92
2017-04-01T05:28:44.054Z,949.90
2017-04-01T05:29:54.048Z,949.90
2017-04-01T05:30:50.375Z,949.89
2017-04-01T05:31:44.856Z,949.98
2017-04-01T05:32:39.448Z,949.96
2017-04-01T05:33:49.133Z,949.95
2017-04-01T05:34:44.773Z,949.94
2017-04-01T05:35:45.060Z,949.91
2017-04-01T05:36:46.061Z,949.91
2017-04-01T05:37:38.382Z,949.98
2017-04-01T05:38:43.909Z,949.90
2017-04-01T05:39:44.756Z,949.93
2017-04-01T05:40:39.456Z,949.91
2017-04-01T05:41:52.466Z,949.92
2017-04-01T05:42:33.475Z,949.91
2017-04-01T05:43:39.376Z,949.94
2017-04-01T05:44:42.386Z,949.91
2017-04-01T05:45:44.445Z,949.91
2017-04-01T05:46:44.273Z,949.89
2017-04-01T05:47:39.531Z,949.90
2017-04-01T05:48:43.937Z,949.92
2017-04-01T05:49:43.557Z,949.94
2017-04-01T05:50:42.913Z,949.94
2017-04-01T05:51:38.090Z,949.93
2017-04-01T05:52:39.315Z,949.93
2017-04-01T05:53:43.864Z,949.91
2017-04-01T05:54:49.895Z,949.94
2017-04-01T05:55:40.246Z,949.93
2017-04-01T05:56:47.390Z,949.94
2017-04-01T05:57:43.590Z,949.93
2017-04-01T05:58:39.944Z,949.94
2017-04-01T05:59:45.427Z,949.93
2017-04-01T06:00:42.983Z,949.93
2017-04-01T06:01:49.487Z,949.93
2017-04-01T06:02:42.754Z,949.93
2017-04-01T06:03:50.394Z,949.88
2017-04-01T06:04:47.130Z,949.88
2017-04-01T06:05:43.758Z,949.93
2017-04-01T06:06:44.861Z,949.89
2017-04-01T06:07:49.429Z,949.88
2017-04-01T06:08:44.878Z,949.92
2017-04-01T06:09:45.725Z,949.93
2017-04-01T06:10:45.064Z,949.91
2017-04-01T06:11:43.542Z,949.93
2017-04-01T06:12:49.829Z,949.94
2017-04-01T06:13:45.521Z,949.92
2017-04-01T06:14:52.138Z,949.92
2017-04-01T06:15:51.120Z,949.94
2017-04-01T06:16:44.477Z,949.92
2017-04-01T06:17:44.085Z,949.95
2017-04-01T06:18:51.940Z,949.96
2017-04-01T06:19:50.360Z,949.94
2017-04-01T06:20:45.061Z,949.91
2017-04-01T06:21:45.610Z,949.94
2017-04-01T06:22:59.054Z,949.92
2017-04-01T06:23:48.629Z,949.92
2017-04-01T06:24:44.754Z,949.89
2017-04-01T06:25:49.772Z,949.88
2017-04-01T06:26:39.791Z,949.89
2017-04-01T06:27:47.396Z,949.91
2017-04-01T06:28:43.908Z,949.89
2017-04-01T06:29:50.812Z,949.88
2017-04-01T06:30:49.650Z,949.89
2017-04-01T06:31:39.394Z,949.91
2017-04-01T06:32:49.173Z,949.86
2017-04-01T06:33:50.639Z,949.89
2017-04-01T06:34:40.642Z,949.84
2017-04-01T06:35:38.334Z,949.82
2017-04-01T06:36:53.175Z,949.84
2017-04-01T06:37:53.136Z,949.84
2017-04-01T06:38:50.677Z,949.83
2017-04-01T06:39:44.714Z,949.84
2017-04-01T06:40:44.349Z,949.84
2017-04-01T06:41:47.873Z,949.82
2017-04-01T06:42:43.614Z,949.79
2017-04-01T06:43:40.730Z,949.77
2017-04-01T06:44:45.714Z,949.77
2017-04-01T06:45:43.755Z,949.76
2017-04-01T06:46:43.390Z,949.77
2017-04-01T06:47:52.866Z,949.78
2017-04-01T06:48:53.209Z,949.73
2017-04-01T06:49:46.929Z,949.77
2017-04-01T06:50:39.282Z,949.78
2017-04-01T06:51:43.568Z,949.78
2017-04-01T06:52:50.899Z,949.78
2017-04-01T06:53:45.886Z,949.77
2017-04-01T06:54:45.360Z,949.75
2017-04-01T06:55:43.733Z,949.76
2017-04-01T06:56:53.047Z,949.76
2017-04-01T06:57:47.077Z,949.74
2017-04-01T06:58:43.196Z,949.78
2017-04-01T06:59:37.278Z,949.75
2017-04-01T07:00:44.971Z,949.76
2017-04-01T07:01:43.548Z,949.74
2017-04-01T07:02:44.568Z,949.75
2017-04-01T07:03:50.591Z,949.73
2017-04-01T07:04:40.630Z,949.71
2017-04-01T07:05:45.127Z,949.73
2017-04-01T07:06:50.680Z,949.73
2017-04-01T07:07:39.176Z,949.72
2017-04-01T07:08:38.980Z,949.73
2017-04-01T07:09:48.017Z,949.73
2017-04-01T07:10:43.103Z,949.72
2017-04-01T07:11:44.857Z,949.72
2017-04-01T07:12:47.083Z,949.71
2017-04-01T07:13:45.753Z,949.69
2017-04-01T07:14:47.392Z,949.68
2017-04-01T07:15:51.015Z,949.73
2017-04-01T07:16:45.918Z,949.64
2017-04-01T07:17:38.521Z,949.69
2017-04-01T07:18:45.396Z,949.68
2017-04-01T07:19:47.094Z,949.71
2017-04-01T07:20:39.197Z,949.72
2017-04-01T07:21:38.754Z,949.70
2017-04-01T07:22:45.345Z,949.70
2017-04-01T07:23:40.710Z,949.70
2017-04-01T07:24:50.618Z,949.73
2017-04-01T07:25:42.868Z,949.70
2017-04-01T07:26:50.320Z,949.76
2017-04-01T07:27:44.107Z,949.71
2017-04-01T07:28:40.435Z,949.72
2017-04-01T07:29:51.912Z,949.74
2017-04-01T07:30:45.388Z,949.73
2017-04-01T07:31:41.994Z,949.70
2017-04-01T07:32:45.890Z,949.77
2017-04-01T07:33:38.986Z,949.71
2017-04-01T07:34:44.133Z,949.77
2017-04-01T07:35:37.199Z,949.73
2017-04-01T07:36:45.865Z,949.77
2017-04-01T07:37:44.974Z,949.77
2017-04-01T07:38:49.021Z,949.72
2017-04-01T07:40:44.865Z,949.71
2017-04-01T07:41:48.899Z,949.74
2017-04-01T07:42:46.444Z,949.75
2017-04-01T07:43:51.739Z,949.74
2017-04-01T07:44:42.764Z,949.75
2017-04-01T07:45:38.313Z,949.74
2017-04-01T07:46:47.216Z,949.74
2017-04-01T07:47:42.300Z,949.75
2017-04-01T07:48:40.077Z,949.76
2017-04-01T07:49:43.756Z,949.75
2017-04-01T07:50:53.024Z,949.77
2017-04-01T07:51:53.731Z,949.73
2017-04-01T07:52:38.877Z,949.73
2017-04-01T07:53:59.553Z,949.72
2017-04-01T07:54:43.341Z,949.73
2017-04-01T07:55:45.141Z,949.73
2017-04-01T07:56:40.987Z,949.68
2017-04-01T07:57:48.378Z,949.73
2017-04-01T07:58:46.616Z,949.72
2017-04-01T07:59:44.157Z,949.74
2017-04-01T08:00:42.982Z,949.71
2017-04-01T08:01:35.114Z,949.71
2017-04-01T08:03:04.950Z,949.71
2017-04-01T08:03:52.172Z,949.72
2017-04-01T08:04:44.729Z,949.75
2017-04-01T08:05:38.986Z,949.73
2017-04-01T08:06:53.802Z,949.70
2017-04-01T08:07:45.559Z,949.71
2017-04-01T08:08:54.944Z,949.73
2017-04-01T08:09:41.473Z,949.75
2017-04-01T08:11:00.253Z,949.74
2017-04-01T08:11:44.045Z,949.74
2017-04-01T08:13:08.561Z,949.71
2017-04-01T08:13:34.995Z,949.69
2017-04-01T08:15:50.687Z,949.75
2017-04-01T08:16:39.228Z,949.70
2017-04-01T08:17:40.709Z,949.73
2017-04-01T08:19:48.052Z,949.66
2017-04-01T08:19:48.087Z,949.62
2017-04-01T08:20:41.329Z,949.67
2017-04-01T08:22:16.917Z,949.68
2017-04-01T08:22:52.212Z,949.65
2017-04-01T08:23:37.638Z,949.63
2017-04-01T08:24:44.957Z,949.65
2017-04-01T08:25:40.112Z,949.61
2017-04-01T08:27:04.006Z,949.65
2017-04-01T08:27:38.946Z,949.66
2017-04-01T08:28:42.750Z,949.63
2017-04-01T08:30:00.650Z,949.66
2017-04-01T08:30:43.826Z,949.66
2017-04-01T08:31:49.202Z,949.63
2017-04-01T08:32:50.418Z,949.64
2017-04-01T08:33:39.371Z,949.61
2017-04-01T08:34:42.005Z,949.61
2017-04-01T08:35:42.002Z,949.61
2017-04-01T08:36:44.949Z,949.60
2017-04-01T08:37:43.840Z,949.61
2017-04-01T08:38:34.773Z,949.58
2017-04-01T08:39:50.428Z,949.59
2017-04-01T08:40:45.611Z,949.60
2017-04-01T08:41:45.129Z,949.55
2017-04-01T08:42:48.780Z,949.52
2017-04-01T08:43:39.184Z,949.56
2017-04-01T08:44:40.733Z,949.54
2017-04-01T08:45:43.987Z,949.52
2017-04-01T08:46:50.153Z,949.57
2017-04-01T08:47:37.593Z,949.48
2017-04-01T08:48:37.566Z,949.48
2017-04-01T08:49:43.694Z,949.48
2017-04-01T08:50:37.846Z,949.46
2017-04-01T08:51:54.255Z,949.45
2017-04-01T08:52:44.393Z,949.47
2017-04-01T08:53:37.668Z,949.43
2017-04-01T08:54:48.099Z,949.43
2017-04-01T08:55:58.052Z,949.38
2017-04-01T08:56:50.413Z,949.41
2017-04-01T08:57:39.192Z,949.40
2017-04-01T08:58:38.354Z,949.39
2017-04-01T08:59:47.282Z,949.42
2017-04-01T09:00:39.306Z,949.37
2017-04-01T09:01:38.230Z,949.39
2017-04-01T09:02:39.743Z,949.41
2017-04-01T09:03:46.525Z,949.40
2017-04-01T09:04:47.354Z,949.33
2017-04-01T09:05:41.774Z,949.38
2017-04-01T09:06:49.915Z,949.38
2017-04-01T09:07:45.712Z,949.34
2017-04-01T09:08:47.670Z,949.34
2017-04-01T09:09:50.968Z,949.31
2017-04-01T09:10:44.131Z,949.28
2017-04-01T09:11:39.298Z,949.26
2017-04-01T09:12:36.846Z,949.31
2017-04-01T09:13:44.283Z,949.27
2017-04-01T09:14:46.640Z,949.29
2017-04-01T09:15:37.126Z,949.31
2017-04-01T09:16:39.207Z,949.29
2017-04-01T09:17:50.665Z,949.29
2017-04-01T09:18:43.464Z,949.32
2017-04-01T09:19:34.960Z,949.30
2017-04-01T09:20:39.976Z,949.28
2017-04-01T09:21:45.021Z,949.30
2017-04-01T09:22:39.013Z,949.31
2017-04-01T09:23:48.256Z,949.32
2017-04-01T09:24:40.274Z,949.26
2017-04-01T09:25:44.638Z,949.31
2017-04-01T09:26:47.115Z,949.31
2017-04-01T09:27:46.084Z,949.30
2017-04-01T09:28:58.801Z,949.29
2017-04-01T09:29:48.281Z,949.29
2017-04-01T09:30:51.406Z,949.26
2017-04-01T09:31:47.733Z,949.26
2017-04-01T09:32:49.643Z,949.25
2017-04-01T09:33:38.630Z,949.29
2017-04-01T09:34:39.719Z,949.27
2017-04-01T09:35:47.523Z,949.26
2017-04-01T09:36:54.006Z,949.22
2017-04-01T09:37:38.536Z,949.20
2017-04-01T09:38:39.313Z,949.22
2017-04-01T09:39:45.962Z,949.23
2017-04-01T09:40:40.744Z,949.23
2017-04-01T09:41:38.312Z,949.22
2017-04-01T09:42:43.883Z,949.18
2017-04-01T09:43:37.301Z,949.16
2017-04-01T09:44:51.817Z,949.17
2017-04-01T09:45:45.711Z,949.14
2017-04-01T09:46:47.967Z,949.12
2017-04-01T09:47:33.994Z,949.09
2017-04-01T09:48:45.148Z,949.07
2017-04-01T09:49:50.306Z,949.10
2017-04-01T09:50:44.234Z,949.08
2017-04-01T09:51:39.805Z,949.08
2017-04-01T09:52:49.405Z,949.08
2017-04-01T09:53:48.124Z,949.07
2017-04-01T09:54:32.944Z,949.04
2017-04-01T09:55:37.760Z,949.04
2017-04-01T09:56:56.223Z,949.06
2017-04-01T09:57:45.199Z,949.05
2017-04-01T09:58:43.735Z,949.00
2017-04-01T09:59:43.119Z,949.02
2017-04-01T10:00:54.764Z,948.99
2017-04-01T10:01:39.736Z,948.99
2017-04-01T10:02:44.892Z,948.97
2017-04-01T10:03:40.673Z,948.98
2017-04-01T10:04:45.780Z,948.97
2017-04-01T10:05:37.673Z,948.93
2017-04-01T10:06:55.292Z,948.97
2017-04-01T10:07:39.020Z,948.99
2017-04-01T10:08:45.016Z,948.99
2017-04-01T10:09:46.662Z,948.99
2017-04-01T10:10:37.628Z,948.98
2017-04-01T10:11:45.702Z,948.95
2017-04-01T10:12:56.119Z,948.94
2017-04-01T10:13:39.915Z,948.91
2017-04-01T10:14:45.106Z,948.89
2017-04-01T10:15:50.542Z,948.88
2017-04-01T10:16:38.255Z,948.90
2017-04-01T10:17:38.216Z,948.86
2017-04-01T10:18:45.558Z,948.86
2017-04-01T10:19:42.139Z,948.85
2017-04-01T10:20:38.264Z,948.85
2017-04-01T10:21:48.164Z,948.85
2017-04-01T10:22:47.315Z,948.85
2017-04-01T10:23:39.773Z,948.85
2017-04-01T10:24:39.065Z,948.85
2017-04-01T10:25:44.802Z,948.80
2017-04-01T10:26:45.597Z,948.80
2017-04-01T10:27:39.123Z,948.83
2017-04-01T10:28:35.962Z,948.79
2017-04-01T10:29:38.288Z,948.75
2017-04-01T10:30:47.512Z,948.78
2017-04-01T10:31:33.200Z,948.78
2017-04-01T10:32:43.593Z,948.78
2017-04-01T10:33:53.434Z,948.84
2017-04-01T10:34:49.504Z,948.77
2017-04-01T10:35:44.922Z,948.76
2017-04-01T10:36:44.001Z,948.78
2017-04-01T10:37:52.954Z,948.77
2017-04-01T10:38:47.315Z,948.75
2017-04-01T10:39:39.525Z,948.66
2017-04-01T10:40:38.147Z,948.68
2017-04-01T10:41:39.905Z,948.65
2017-04-01T10:42:38.699Z,948.65
2017-04-01T10:43:39.326Z,948.63
2017-04-01T10:44:49.853Z,948.64
2017-04-01T10:45:40.201Z,948.61
2017-04-01T10:46:50.093Z,948.61
2017-04-01T10:47:52.426Z,948.60
2017-04-01T10:48:39.205Z,948.63
2017-04-01T10:49:58.924Z,948.62
2017-04-01T10:50:38.139Z,948.59
2017-04-01T10:51:37.808Z,948.55
2017-04-01T10:52:47.366Z,948.55
2017-04-01T10:53:48.200Z,948.55
2017-04-01T10:54:44.426Z,948.55
2017-04-01T10:55:45.925Z,948.55
2017-04-01T10:56:42.101Z,948.54
2017-04-01T10:57:39.907Z,948.57
2017-04-01T10:58:50.689Z,948.54
2017-04-01T10:59:51.357Z,948.55
2017-04-01T11:00:49.984Z,948.54
2017-04-01T11:01:39.819Z,948.52
2017-04-01T11:02:44.881Z,948.54
2017-04-01T11:03:38.962Z,948.49
2017-04-01T11:04:44.883Z,948.47
2017-04-01T11:05:38.912Z,948.50
2017-04-01T11:06:43.474Z,948.51
2017-04-01T11:07:44.853Z,948.56
2017-04-01T11:08:39.428Z,948.50
2017-04-01T11:09:39.476Z,948.50
2017-04-01T11:10:44.908Z,948.51
2017-04-01T11:11:44.056Z,948.49
2017-04-01T11:12:51.482Z,948.49
2017-04-01T11:13:38.486Z,948.48
2017-04-01T11:14:37.870Z,948.47
2017-04-01T11:15:33.744Z,948.44
2017-04-01T11:16:44.845Z,948.47
2017-04-01T11:17:37.881Z,948.44
2017-04-01T11:18:39.335Z,948.40
2017-04-01T11:19:34.335Z,948.40
2017-04-01T11:20:58.027Z,948.42
2017-04-01T11:21:38.028Z,948.43
2017-04-01T11:22:44.808Z,948.39
2017-04-01T11:23:48.246Z,948.36
2017-04-01T11:24:39.416Z,948.37
2017-04-01T11:25:52.010Z,948.33
2017-04-01T11:26:43.988Z,948.32
2017-04-01T11:27:50.883Z,948.35
2017-04-01T11:28:45.485Z,948.31
2017-04-01T11:29:39.127Z,948.30
2017-04-01T11:30:48.233Z,948.26
2017-04-01T11:31:45.847Z,948.33
2017-04-01T11:32:38.201Z,948.39
2017-04-01T11:33:47.757Z,948.34
2017-04-01T11:34:32.826Z,948.35
2017-04-01T11:35:38.611Z,948.36
2017-04-01T11:36:42.606Z,948.32
2017-04-01T11:37:54.325Z,948.31
2017-04-01T11:38:48.202Z,948.32
2017-04-01T11:39:46.802Z,948.31
2017-04-01T11:40:44.866Z,948.30
2017-04-01T11:41:38.314Z,948.33
2017-04-01T11:42:33.921Z,948.28
2017-04-01T11:43:46.384Z,948.29
2017-04-01T11:44:52.705Z,948.29
2017-04-01T11:45:46.496Z,948.29
2017-04-01T11:46:51.242Z,948.27
2017-04-01T11:47:47.221Z,948.25
2017-04-01T11:48:45.199Z,948.25
2017-04-01T11:49:39.119Z,948.23
2017-04-01T11:50:34.496Z,948.22
2017-04-01T11:51:44.701Z,948.28
2017-04-01T11:52:39.183Z,948.24
2017-04-01T11:53:44.233Z,948.25
2017-04-01T11:54:43.702Z,948.26
2017-04-01T11:55:39.305Z,948.24
2017-04-01T11:56:57.777Z,948.22
2017-04-01T11:57:37.739Z,948.21
2017-04-01T11:58:44.230Z,948.18
2017-04-01T11:59:41.544Z,948.20
2017-04-01T12:00:44.951Z,948.18
2017-04-01T12:01:53.691Z,948.16
2017-04-01T12:02:54.572Z,948.15
2017-04-01T12:03:44.701Z,948.16
2017-04-01T12:04:39.486Z,948.16
2017-04-01T12:05:41.107Z,948.16
2017-04-01T12:06:39.768Z,948.13
2017-04-01T12:07:35.034Z,948.16
2017-04-01T12:08:39.754Z,948.11
2017-04-01T12:09:38.447Z,948.05
2017-04-01T12:10:44.795Z,948.09
2017-04-01T12:11:43.302Z,948.09
2017-04-01T12:12:39.084Z,948.09
2017-04-01T12:13:45.024Z,948.07
2017-04-01T12:14:44.507Z,948.04
2017-04-01T12:15:41.686Z,948.07
2017-04-01T12:16:46.577Z,948.06
2017-04-01T12:17:48.390Z,948.04
2017-04-01T12:18:42.643Z,948.05
2017-04-01T12:19:48.309Z,948.03
2017-04-01T12:20:44.038Z,948.05
2017-04-01T12:21:55.099Z,948.04
2017-04-01T12:22:38.835Z,947.98
2017-04-01T12:23:39.774Z,948.01
2017-04-01T12:24:41.104Z,947.98
2017-04-01T12:25:50.690Z,947.97
2017-04-01T12:26:49.897Z,947.99
2017-04-01T12:27:56.357Z,947.97
2017-04-01T12:28:43.561Z,948.00
2017-04-01T12:29:47.370Z,947.98
2017-04-01T12:30:51.654Z,947.97